EDT,Max TemperatureF,Mean TemperatureF,Min TemperatureF,Max Dew PointF,MeanDew PointF,Min DewpointF,Max Humidity, Mean Humidity, Min Humidity, Max Sea Level PressureIn, Mean Sea Level PressureIn, Min Sea Level PressureIn, Max VisibilityMiles, Mean VisibilityMiles, Min VisibilityMiles, Max Wind SpeedMPH, Mean Wind SpeedMPH, Max Gust SpeedMPH,PrecipitationIn, CloudCover, Events, WindDirDegrees
2013-6-1,93,76,60,66,61,57,94,59,31,29.93,29.88,29.82,10,10,9,18,4,25,0.00,0,,224
2013-6-2,86,76,64,70,66,59,100,72,51,29.83,29.77,29.66,10,10,7,20,7,29,0.00,1,,181
2013-6-3,77,68,55,64,60,46,100,79,43,29.82,29.76,29.71,10,9,1,16,6,22,0.00,4,,198
2013-6-4,64,55,46,50,40,36,93,56,37,30.06,29.90,29.80,10,10,10,26,6,33,0.00,1,,308
2013-6-5,71,60,50,46,38,30,82,48,23,30.17,30.13,30.06,10,10,10,15,7,18,0.00,0,,295
2013-6-6,69,56,44,52,45,36,93,66,30,30.23,30.18,30.16,10,10,10,10,3,17,0.00,2,,132
2013-6-7,60,56,51,52,48,37,94,79,42,30.16,30.10,29.95,10,10,5,10,5,,0.00,8,,79
2013-6-8,69,60,51,57,54,50,94,81,60,29.99,29.82,29.69,10,8,2,20,9,25,0.00,8,,2
2013-6-9,75,65,55,57,54,48,94,71,41,30.17,30.06,29.98,10,10,10,9,3,,0.00,6,,232
2013-6-10,69,60,51,55,52,46,94,74,46,30.23,30.17,30.06,10,10,10,12,4,,0.00,1,,171
2013-6-11,55,54,53,54,53,52,94,91,88,30.06,29.80,29.57,10,7,2,13,6,16,0.00,8,,53
2013-6-12,60,56,53,55,53,50,94,87,68,29.79,29.64,29.54,10,9,2,16,10,26,0.00,8,,339
2013-6-13,69,58,46,54,49,43,94,72,40,29.80,29.77,29.73,10,10,1,12,4,,0.00,2,,108
2013-6-14,75,64,53,54,50,43,94,70,31,29.76,29.71,29.66,10,8,0,12,3,17,0.00,4,,9
2013-6-15,75,62,50,48,41,36,88,48,25,29.90,29.85,29.75,10,10,9,16,5,25,0.00,1,,307
2013-6-16,75,60,44,57,50,43,93,68,38,29.91,29.83,29.72,10,10,10,13,3,18,0.00,4,,186
2013-6-17,78,64,50,63,56,48,100,79,42,29.88,29.80,29.74,10,9,1,17,3,26,0.00,3,,245
2013-6-18,64,58,51,59,52,46,94,78,55,29.99,29.93,29.87,10,10,9,10,3,,0.00,5,,339
2013-6-19,71,60,48,54,45,37,100,60,29,30.16,30.02,29.94,10,10,5,14,4,18,0.00,2,,357
2013-6-20,75,60,44,48,45,41,93,59,31,30.27,30.22,30.16,10,10,7,13,3,18,0.00,0,,197
2013-6-21,80,64,48,57,51,45,94,67,34,30.24,30.21,30.19,10,10,5,10,2,,0.00,0,,264
2013-6-22,82,68,55,68,60,54,100,77,39,30.22,30.18,30.13,10,9,2,9,2,,0.00,4,,193
2013-6-23,78,72,66,70,66,64,100,89,69,30.01,30.00,29.99,10,7,2,12,4,20,0.00,7,Thunderstorm,170
2013-6-24,89,76,62,70,65,61,100,70,43,29.98,29.90,29.84,10,8,0,16,3,22,0.00,1,,285
2013-6-25,87,76,64,70,66,63,94,75,51,29.86,29.80,29.73,10,9,4,18,4,28,0.00,2,Thunderstorm,200
2013-6-26,75,67,59,70,64,57,100,90,73,29.90,29.87,29.85,10,8,2,12,2,20,0.00,6,Thunderstorm,158
2013-6-27,66,60,55,63,58,54,100,92,83,29.89,29.87,29.83,10,7,2,8,4,,0.01,8,,147
2013-6-28,64,60,57,63,59,55,100,95,88,29.85,29.65,29.55,10,4,0,13,6,18,0.00,8,,49
2013-6-29,78,70,62,70,65,61,100,90,73,29.69,29.59,29.55,10,6,0,14,4,21,0.00,6,,159
2013-6-30,82,72,62,72,66,61,100,83,54,29.93,29.82,29.70,10,8,0,12,5,17,0.01,2,Thunderstorm,183